sensor_id;sensor_type;location;lat;lon;timestamp;pressure;altitude;pressure_sealevel;temperature;humidity
23229;BME280;11783;50.350;6.576;2023-03-01T00:02:16;97209.72;;;-1.66;74.27
23229;BME280;11783;50.350;6.576;2023-03-01T00:04:41;97212.59;;;-1.69;74.14
23229;BME280;11783;50.350;6.576;2023-03-01T00:07:06;97213.69;;;-1.72;73.71
23229;BME280;11783;50.350;6.576;2023-03-01T00:09:32;97203.13;;;-1.70;73.64
23229;BME280;11783;50.350;6.576;2023-03-01T00:11:57;97210.94;;;-1.70;73.07
23229;BME280;11783;50.350;6.576;2023-03-01T00:14:22;97206.16;;;-1.75;74.21
23229;BME280;11783;50.350;6.576;2023-03-01T00:16:48;97191.94;;;-1.80;75.14
23229;BME280;11783;50.350;6.576;2023-03-01T00:19:16;97193.97;;;-1.74;73.41
23229;BME280;11783;50.350;6.576;2023-03-01T00:21:42;97207.84;;;-1.84;74.53
23229;BME280;11783;50.350;6.576;2023-03-01T00:24:08;97194.00;;;-1.84;73.59
23229;BME280;11783;50.350;6.576;2023-03-01T00:26:33;97189.47;;;-1.82;73.27
23229;BME280;11783;50.350;6.576;2023-03-01T00:28:59;97190.84;;;-1.88;73.98
23229;BME280;11783;50.350;6.576;2023-03-01T00:31:27;97184.56;;;-1.95;75.07
23229;BME280;11783;50.350;6.576;2023-03-01T00:33:59;97183.59;;;-1.94;74.54
23229;BME280;11783;50.350;6.576;2023-03-01T00:36:27;97184.41;;;-1.93;74.26
23229;BME280;11783;50.350;6.576;2023-03-01T00:38:53;97193.72;;;-1.91;73.49
23229;BME280;11783;50.350;6.576;2023-03-01T00:41:19;97193.06;;;-1.93;73.84
23229;BME280;11783;50.350;6.576;2023-03-01T00:43:45;97182.63;;;-1.93;74.32
23229;BME280;11783;50.350;6.576;2023-03-01T00:46:13;97181.00;;;-1.94;73.61
23229;BME280;11783;50.350;6.576;2023-03-01T00:48:39;97185.66;;;-1.97;73.46
23229;BME280;11783;50.350;6.576;2023-03-01T00:53:38;97176.78;;;-2.04;74.47
23229;BME280;11783;50.350;6.576;2023-03-01T00:56:05;97177.59;;;-2.04;73.98
23229;BME280;11783;50.350;6.576;2023-03-01T00:58:31;97172.41;;;-2.04;73.89
23229;BME280;11783;50.350;6.576;2023-03-01T01:00:56;97174.28;;;-2.06;74.63
23229;BME280;11783;50.350;6.576;2023-03-01T01:03:22;97170.06;;;-2.07;74.91
23229;BME280;11783;50.350;6.576;2023-03-01T01:05:50;97171.00;;;-2.08;74.75
23229;BME280;11783;50.350;6.576;2023-03-01T01:08:16;97176.66;;;-2.03;73.30
23229;BME280;11783;50.350;6.576;2023-03-01T01:10:43;97175.00;;;-2.14;73.65
23229;BME280;11783;50.350;6.576;2023-03-01T01:13:09;97173.81;;;-2.19;74.76
23229;BME280;11783;50.350;6.576;2023-03-01T01:15:35;97167.63;;;-2.18;74.02
23229;BME280;11783;50.350;6.576;2023-03-01T01:18:01;97168.31;;;-2.26;74.92
23229;BME280;11783;50.350;6.576;2023-03-01T01:20:26;97159.69;;;-2.26;75.05
23229;BME280;11783;50.350;6.576;2023-03-01T01:22:51;97160.09;;;-2.31;75.25
23229;BME280;11783;50.350;6.576;2023-03-01T01:25:17;97155.88;;;-2.32;75.77
23229;BME280;11783;50.350;6.576;2023-03-01T01:27:43;97157.38;;;-2.29;73.89
23229;BME280;11783;50.350;6.576;2023-03-01T01:30:09;97149.84;;;-2.32;75.00
23229;BME280;11783;50.350;6.576;2023-03-01T01:32:34;97148.88;;;-2.31;75.07
23229;BME280;11783;50.350;6.576;2023-03-01T01:34:59;97156.97;;;-2.34;74.79
23229;BME280;11783;50.350;6.576;2023-03-01T01:37:25;97154.63;;;-2.28;74.06
23229;BME280;11783;50.350;6.576;2023-03-01T01:39:59;97148.88;;;-2.31;73.87
23229;BME280;11783;50.350;6.576;2023-03-01T01:42:26;97145.59;;;-2.33;74.22
23229;BME280;11783;50.350;6.576;2023-03-01T01:45:28;97139.41;;;-2.32;73.77
23229;BME280;11783;50.350;6.576;2023-03-01T01:47:58;97136.72;;;-2.40;74.35
23229;BME280;11783;50.350;6.576;2023-03-01T01:50:25;97142.88;;;-2.41;72.37
23229;BME280;11783;50.350;6.576;2023-03-01T01:52:52;97145.88;;;-2.46;73.42
23229;BME280;11783;50.350;6.576;2023-03-01T01:55:21;97142.59;;;-2.48;73.33
23229;BME280;11783;50.350;6.576;2023-03-01T01:57:54;97147.94;;;-2.50;73.72
23229;BME280;11783;50.350;6.576;2023-03-01T02:00:24;97142.78;;;-2.59;74.53
23229;BME280;11783;50.350;6.576;2023-03-01T02:02:52;97141.00;;;-2.59;75.04
23229;BME280;11783;50.350;6.576;2023-03-01T02:08:15;97145.63;;;-2.62;75.27
23229;BME280;11783;50.350;6.576;2023-03-01T02:10:42;97134.25;;;-2.61;74.52
23229;BME280;11783;50.350;6.576;2023-03-01T02:13:08;97131.53;;;-2.60;73.93
23229;BME280;11783;50.350;6.576;2023-03-01T02:15:35;97138.25;;;-2.57;73.65
23229;BME280;11783;50.350;6.576;2023-03-01T02:18:02;97128.78;;;-2.58;73.33
23229;BME280;11783;50.350;6.576;2023-03-01T02:20:37;97125.75;;;-2.63;74.18
23229;BME280;11783;50.350;6.576;2023-03-01T02:23:07;97122.34;;;-2.64;73.15
23229;BME280;11783;50.350;6.576;2023-03-01T02:28:28;97118.38;;;-2.68;73.73
23229;BME280;11783;50.350;6.576;2023-03-01T02:30:54;97118.25;;;-2.66;73.62
23229;BME280;11783;50.350;6.576;2023-03-01T02:33:39;97116.19;;;-2.72;73.84
23229;BME280;11783;50.350;6.576;2023-03-01T02:36:20;97114.69;;;-2.75;74.33
23229;BME280;11783;50.350;6.576;2023-03-01T02:38:48;97117.69;;;-2.70;73.74
23229;BME280;11783;50.350;6.576;2023-03-01T02:41:16;97112.38;;;-2.78;74.18
23229;BME280;11783;50.350;6.576;2023-03-01T02:43:43;97105.50;;;-2.79;74.40
23229;BME280;11783;50.350;6.576;2023-03-01T02:46:16;97107.56;;;-2.83;74.70
23229;BME280;11783;50.350;6.576;2023-03-01T02:48:50;97103.63;;;-2.77;73.93
23229;BME280;11783;50.350;6.576;2023-03-01T02:56:36;97103.47;;;-2.85;74.26
23229;BME280;11783;50.350;6.576;2023-03-01T02:59:02;97102.53;;;-2.94;75.06
23229;BME280;11783;50.350;6.576;2023-03-01T03:01:28;97103.34;;;-2.93;75.30
23229;BME280;11783;50.350;6.576;2023-03-01T03:04:07;97098.44;;;-2.96;75.14
23229;BME280;11783;50.350;6.576;2023-03-01T03:06:33;97092.28;;;-2.95;74.29
23229;BME280;11783;50.350;6.576;2023-03-01T03:08:59;97094.19;;;-2.97;75.13
23229;BME280;11783;50.350;6.576;2023-03-01T03:11:25;97084.47;;;-2.95;74.34
23229;BME280;11783;50.350;6.576;2023-03-01T03:13:50;97076.22;;;-3.00;75.12
23229;BME280;11783;50.350;6.576;2023-03-01T03:16:17;97070.22;;;-3.01;75.31
23229;BME280;11783;50.350;6.576;2023-03-01T03:18:42;97067.31;;;-2.98;74.38
23229;BME280;11783;50.350;6.576;2023-03-01T03:21:08;97068.19;;;-2.97;74.45
23229;BME280;11783;50.350;6.576;2023-03-01T03:23:36;97059.94;;;-3.02;75.09
23229;BME280;11783;50.350;6.576;2023-03-01T03:26:02;97056.66;;;-3.05;75.01
23229;BME280;11783;50.350;6.576;2023-03-01T03:28:29;97054.22;;;-3.06;75.03
23229;BME280;11783;50.350;6.576;2023-03-01T03:30:56;97056.00;;;-3.07;74.93
23229;BME280;11783;50.350;6.576;2023-03-01T03:33:21;97053.66;;;-3.10;74.90
23229;BME280;11783;50.350;6.576;2023-03-01T03:35:49;97059.00;;;-3.11;74.97
23229;BME280;11783;50.350;6.576;2023-03-01T03:38:16;97065.16;;;-3.12;74.78
23229;BME280;11783;50.350;6.576;2023-03-01T03:40:48;97067.47;;;-3.19;74.93
23229;BME280;11783;50.350;6.576;2023-03-01T03:43:20;97058.03;;;-3.20;74.85
23229;BME280;11783;50.350;6.576;2023-03-01T03:45:48;97064.88;;;-3.19;74.52
23229;BME280;11783;50.350;6.576;2023-03-01T03:48:14;97054.06;;;-3.24;74.73
23229;BME280;11783;50.350;6.576;2023-03-01T03:50:40;97053.25;;;-3.24;75.66
23229;BME280;11783;50.350;6.576;2023-03-01T03:53:09;97053.53;;;-3.27;75.67
23229;BME280;11783;50.350;6.576;2023-03-01T03:55:35;97047.78;;;-3.31;76.04
23229;BME280;11783;50.350;6.576;2023-03-01T03:58:05;97052.44;;;-3.34;75.92
23229;BME280;11783;50.350;6.576;2023-03-01T04:00:34;97039.44;;;-3.34;75.17
23229;BME280;11783;50.350;6.576;2023-03-01T04:03:00;97035.75;;;-3.42;75.36
23229;BME280;11783;50.350;6.576;2023-03-01T04:05:26;97033.41;;;-3.45;74.82
23229;BME280;11783;50.350;6.576;2023-03-01T04:07:52;97030.00;;;-3.45;74.95
23229;BME280;11783;50.350;6.576;2023-03-01T04:13:03;97031.63;;;-3.54;75.13
23229;BME280;11783;50.350;6.576;2023-03-01T04:15:30;97030.94;;;-3.56;75.48
23229;BME280;11783;50.350;6.576;2023-03-01T04:17:56;97036.13;;;-3.66;76.12
23229;BME280;11783;50.350;6.576;2023-03-01T04:20:26;97027.94;;;-3.71;75.68
23229;BME280;11783;50.350;6.576;2023-03-01T04:23:07;97022.16;;;-3.74;76.24
23229;BME280;11783;50.350;6.576;2023-03-01T04:25:39;97023.66;;;-3.81;77.14
23229;BME280;11783;50.350;6.576;2023-03-01T04:28:05;97012.88;;;-3.86;77.45
23229;BME280;11783;50.350;6.576;2023-03-01T04:30:31;97014.50;;;-3.85;77.56
23229;BME280;11783;50.350;6.576;2023-03-01T04:33:07;97017.09;;;-3.85;77.17
23229;BME280;11783;50.350;6.576;2023-03-01T04:35:34;97019.72;;;-3.85;77.09
23229;BME280;11783;50.350;6.576;2023-03-01T04:37:59;97020.38;;;-3.83;77.08
23229;BME280;11783;50.350;6.576;2023-03-01T04:40:25;97023.81;;;-3.83;77.27
23229;BME280;11783;50.350;6.576;2023-03-01T04:42:50;97015.31;;;-3.75;76.38
23229;BME280;11783;50.350;6.576;2023-03-01T04:45:16;97018.75;;;-3.75;75.35
23229;BME280;11783;50.350;6.576;2023-03-01T04:47:42;97019.84;;;-3.77;75.20
23229;BME280;11783;50.350;6.576;2023-03-01T04:50:10;97020.94;;;-3.80;75.93
23229;BME280;11783;50.350;6.576;2023-03-01T04:52:37;97038.28;;;-3.80;75.78
23229;BME280;11783;50.350;6.576;2023-03-01T04:55:03;97027.78;;;-3.79;75.91
23229;BME280;11783;50.350;6.576;2023-03-01T04:57:29;97028.44;;;-3.77;75.56
23229;BME280;11783;50.350;6.576;2023-03-01T04:59:55;97023.41;;;-3.78;75.31
23229;BME280;11783;50.350;6.576;2023-03-01T05:02:20;97028.44;;;-3.77;74.84
23229;BME280;11783;50.350;6.576;2023-03-01T05:04:46;97028.88;;;-3.81;75.87
23229;BME280;11783;50.350;6.576;2023-03-01T05:07:11;97030.09;;;-3.76;75.66
23229;BME280;11783;50.350;6.576;2023-03-01T05:09:38;97023.13;;;-3.85;76.22
23229;BME280;11783;50.350;6.576;2023-03-01T05:12:04;97018.56;;;-3.92;76.90
23229;BME280;11783;50.350;6.576;2023-03-01T05:14:29;97021.03;;;-3.91;76.47
23229;BME280;11783;50.350;6.576;2023-03-01T05:16:54;97014.34;;;-3.93;76.59
23229;BME280;11783;50.350;6.576;2023-03-01T05:19:20;97007.22;;;-4.01;77.24
23229;BME280;11783;50.350;6.576;2023-03-01T05:21:48;97004.63;;;-4.01;77.64
23229;BME280;11783;50.350;6.576;2023-03-01T05:24:35;97004.50;;;-4.00;77.11
23229;BME280;11783;50.350;6.576;2023-03-01T05:27:02;97007.09;;;-4.00;76.66
23229;BME280;11783;50.350;6.576;2023-03-01T05:29:30;97010.50;;;-3.99;76.30
23229;BME280;11783;50.350;6.576;2023-03-01T05:31:57;97000.66;;;-4.05;77.13
23229;BME280;11783;50.350;6.576;2023-03-01T05:34:31;97010.50;;;-4.09;77.38
23229;BME280;11783;50.350;6.576;2023-03-01T05:36:57;97015.69;;;-4.09;77.25
23229;BME280;11783;50.350;6.576;2023-03-01T05:39:26;97018.16;;;-4.07;77.42
23229;BME280;11783;50.350;6.576;2023-03-01T05:41:54;97019.22;;;-4.10;76.91
23229;BME280;11783;50.350;6.576;2023-03-01T05:44:20;97021.94;;;-4.11;76.62
23229;BME280;11783;50.350;6.576;2023-03-01T05:46:46;97014.84;;;-4.09;76.17
23229;BME280;11783;50.350;6.576;2023-03-01T05:49:12;97020.31;;;-4.12;76.81
23229;BME280;11783;50.350;6.576;2023-03-01T05:51:38;97019.50;;;-4.13;76.73
23229;BME280;11783;50.350;6.576;2023-03-01T05:54:04;97015.13;;;-4.12;75.85
23229;BME280;11783;50.350;6.576;2023-03-01T05:56:32;97018.94;;;-4.16;77.48
23229;BME280;11783;50.350;6.576;2023-03-01T05:58:57;97021.38;;;-4.24;77.85
23229;BME280;11783;50.350;6.576;2023-03-01T06:01:23;97005.81;;;-4.24;77.43
23229;BME280;11783;50.350;6.576;2023-03-01T06:03:48;97014.69;;;-4.27;78.98
23229;BME280;11783;50.350;6.576;2023-03-01T06:06:13;97012.19;;;-4.29;78.34
23229;BME280;11783;50.350;6.576;2023-03-01T06:08:39;97011.28;;;-4.28;78.02
23229;BME280;11783;50.350;6.576;2023-03-01T06:11:04;97005.22;;;-4.28;77.71
23229;BME280;11783;50.350;6.576;2023-03-01T06:13:30;97015.38;;;-4.25;76.76
23229;BME280;11783;50.350;6.576;2023-03-01T06:15:55;97011.50;;;-4.31;77.38
23229;BME280;11783;50.350;6.576;2023-03-01T06:18:21;97017.66;;;-4.32;76.78
23229;BME280;11783;50.350;6.576;2023-03-01T06:20:52;97025.16;;;-4.29;76.63
23229;BME280;11783;50.350;6.576;2023-03-01T06:23:17;97022.16;;;-4.34;77.21
23229;BME280;11783;50.350;6.576;2023-03-01T06:25:43;97024.06;;;-4.36;76.97
23229;BME280;11783;50.350;6.576;2023-03-01T06:28:08;97021.88;;;-4.31;76.73
23229;BME280;11783;50.350;6.576;2023-03-01T06:30:33;97015.72;;;-4.39;77.13
23229;BME280;11783;50.350;6.576;2023-03-01T06:32:59;97023.78;;;-4.42;77.54
23229;BME280;11783;50.350;6.576;2023-03-01T06:35:26;97019.81;;;-4.37;76.97
23229;BME280;11783;50.350;6.576;2023-03-01T06:37:55;97019.13;;;-4.39;76.45
23229;BME280;11783;50.350;6.576;2023-03-01T06:40:20;97019.13;;;-4.39;77.09
23229;BME280;11783;50.350;6.576;2023-03-01T06:42:48;97008.06;;;-4.41;76.15
23229;BME280;11783;50.350;6.576;2023-03-01T06:45:14;97003.03;;;-4.42;77.14
23229;BME280;11783;50.350;6.576;2023-03-01T06:47:40;97004.09;;;-4.45;77.61
23229;BME280;11783;50.350;6.576;2023-03-01T06:50:05;97000.25;;;-4.50;76.86
23229;BME280;11783;50.350;6.576;2023-03-01T06:52:31;97003.66;;;-4.50;77.15
23229;BME280;11783;50.350;6.576;2023-03-01T06:54:56;96996.81;;;-4.51;76.31
23229;BME280;11783;50.350;6.576;2023-03-01T06:57:22;97001.03;;;-4.60;77.19
23229;BME280;11783;50.350;6.576;2023-03-01T06:59:47;97001.44;;;-4.64;76.66
23229;BME280;11783;50.350;6.576;2023-03-01T07:02:13;97003.56;;;-4.69;77.62
23229;BME280;11783;50.350;6.576;2023-03-01T07:04:40;97005.88;;;-4.76;77.75
23229;BME280;11783;50.350;6.576;2023-03-01T07:07:06;97005.03;;;-4.76;77.48
23229;BME280;11783;50.350;6.576;2023-03-01T07:09:31;97011.63;;;-4.72;77.48
23229;BME280;11783;50.350;6.576;2023-03-01T07:11:57;97005.75;;;-4.74;77.41
23229;BME280;11783;50.350;6.576;2023-03-01T07:14:23;97001.94;;;-4.70;77.43
23229;BME280;11783;50.350;6.576;2023-03-01T07:16:54;97004.91;;;-4.75;77.88
23229;BME280;11783;50.350;6.576;2023-03-01T07:19:21;96994.94;;;-4.79;78.35
23229;BME280;11783;50.350;6.576;2023-03-01T07:21:46;96991.69;;;-4.72;77.73
23229;BME280;11783;50.350;6.576;2023-03-01T07:24:12;97002.88;;;-4.71;77.78
23229;BME280;11783;50.350;6.576;2023-03-01T07:26:37;96994.72;;;-4.67;77.90
23229;BME280;11783;50.350;6.576;2023-03-01T07:29:04;96988.97;;;-4.70;78.11
23229;BME280;11783;50.350;6.576;2023-03-01T07:31:30;96991.28;;;-4.67;78.34
23229;BME280;11783;50.350;6.576;2023-03-01T07:33:55;96986.94;;;-4.67;77.26
23229;BME280;11783;50.350;6.576;2023-03-01T07:36:21;96992.25;;;-4.68;77.85
23229;BME280;11783;50.350;6.576;2023-03-01T07:38:47;96994.91;;;-4.59;78.14
23229;BME280;11783;50.350;6.576;2023-03-01T07:41:13;96994.56;;;-4.65;79.26
23229;BME280;11783;50.350;6.576;2023-03-01T07:43:38;96987.50;;;-4.63;78.60
23229;BME280;11783;50.350;6.576;2023-03-01T07:46:04;96987.50;;;-4.63;79.77
23229;BME280;11783;50.350;6.576;2023-03-01T07:48:30;96982.19;;;-4.62;79.06
23229;BME280;11783;50.350;6.576;2023-03-01T07:51:00;96984.09;;;-4.64;79.36
23229;BME280;11783;50.350;6.576;2023-03-01T07:53:25;96983.97;;;-4.62;79.41
23229;BME280;11783;50.350;6.576;2023-03-01T07:56:03;96979.59;;;-4.62;79.70
23229;BME280;11783;50.350;6.576;2023-03-01T07:58:29;96973.81;;;-4.65;80.08
23229;BME280;11783;50.350;6.576;2023-03-01T08:00:56;96979.59;;;-4.62;79.01
23229;BME280;11783;50.350;6.576;2023-03-01T08:03:21;96980.16;;;-4.58;79.67
23229;BME280;11783;50.350;6.576;2023-03-01T08:05:47;96984.81;;;-4.52;80.36
23229;BME280;11783;50.350;6.576;2023-03-01T08:08:12;96987.72;;;-4.45;79.32
23229;BME280;11783;50.350;6.576;2023-03-01T08:10:37;96985.81;;;-4.43;80.51
23229;BME280;11783;50.350;6.576;2023-03-01T08:13:03;96989.66;;;-4.38;79.15
23229;BME280;11783;50.350;6.576;2023-03-01T08:15:28;96989.94;;;-4.31;80.79
23229;BME280;11783;50.350;6.576;2023-03-01T08:17:53;96984.47;;;-4.28;82.51
23229;BME280;11783;50.350;6.576;2023-03-01T08:20:19;96979.19;;;-4.17;81.49
23229;BME280;11783;50.350;6.576;2023-03-01T08:22:44;96984.81;;;-4.02;83.31
23229;BME280;11783;50.350;6.576;2023-03-01T08:25:09;96978.28;;;-3.87;84.76
23229;BME280;11783;50.350;6.576;2023-03-01T08:27:35;96981.84;;;-3.59;84.12
23229;BME280;11783;50.350;6.576;2023-03-01T08:30:00;96976.09;;;-3.24;84.49
23229;BME280;11783;50.350;6.576;2023-03-01T08:32:25;96970.56;;;-3.01;83.69
23229;BME280;11783;50.350;6.576;2023-03-01T08:34:51;96968.94;;;-2.93;83.63
23229;BME280;11783;50.350;6.576;2023-03-01T08:37:16;96964.25;;;-2.89;83.22
23229;BME280;11783;50.350;6.576;2023-03-01T08:39:41;96963.44;;;-2.53;84.51
23229;BME280;11783;50.350;6.576;2023-03-01T08:42:07;96961.03;;;-2.09;82.73
23229;BME280;11783;50.350;6.576;2023-03-01T08:44:32;96953.84;;;-1.97;82.60
23229;BME280;11783;50.350;6.576;2023-03-01T08:46:58;96954.16;;;-1.83;80.25
23229;BME280;11783;50.350;6.576;2023-03-01T08:49:25;96960.75;;;-1.53;81.23
23229;BME280;11783;50.350;6.576;2023-03-01T08:51:50;96957.75;;;-1.22;78.87
23229;BME280;11783;50.350;6.576;2023-03-01T08:54:18;96964.38;;;-1.10;79.23
23229;BME280;11783;50.350;6.576;2023-03-01T08:56:44;96964.28;;;-1.00;79.24
23229;BME280;11783;50.350;6.576;2023-03-01T08:59:14;96951.22;;;-1.00;78.82
23229;BME280;11783;50.350;6.576;2023-03-01T09:01:40;96949.38;;;-0.82;79.33
23229;BME280;11783;50.350;6.576;2023-03-01T09:04:08;96949.13;;;-0.71;77.57
23229;BME280;11783;50.350;6.576;2023-03-01T09:06:34;96946.63;;;-0.54;77.44
23229;BME280;11783;50.350;6.576;2023-03-01T09:09:00;96938.53;;;-0.35;76.15
23229;BME280;11783;50.350;6.576;2023-03-01T09:11:26;96938.88;;;-0.30;75.70
23229;BME280;11783;50.350;6.576;2023-03-01T09:13:52;96940.22;;;-0.18;74.76
23229;BME280;11783;50.350;6.576;2023-03-01T09:16:20;96947.75;;;-0.15;75.21
23229;BME280;11783;50.350;6.576;2023-03-01T09:18:53;96940.25;;;-0.02;74.96
23229;BME280;11783;50.350;6.576;2023-03-01T09:21:21;96935.59;;;0.26;74.43
23229;BME280;11783;50.350;6.576;2023-03-01T09:23:47;96950.13;;;0.37;74.01
23229;BME280;11783;50.350;6.576;2023-03-01T09:26:19;96940.66;;;0.36;72.39
23229;BME280;11783;50.350;6.576;2023-03-01T09:28:46;96941.66;;;0.43;72.04
23229;BME280;11783;50.350;6.576;2023-03-01T09:31:13;96928.25;;;0.46;71.99
23229;BME280;11783;50.350;6.576;2023-03-01T09:33:40;96925.63;;;0.71;73.20
23229;BME280;11783;50.350;6.576;2023-03-01T09:36:10;96920.38;;;1.03;72.33
23229;BME280;11783;50.350;6.576;2023-03-01T09:38:37;96926.44;;;1.12;70.34
23229;BME280;11783;50.350;6.576;2023-03-01T09:41:09;96921.13;;;1.28;72.17
23229;BME280;11783;50.350;6.576;2023-03-01T09:43:46;96924.03;;;1.49;70.48
23229;BME280;11783;50.350;6.576;2023-03-01T09:46:14;96918.00;;;1.49;68.32
23229;BME280;11783;50.350;6.576;2023-03-01T09:48:49;96918.03;;;1.33;68.14
23229;BME280;11783;50.350;6.576;2023-03-01T09:51:27;96919.84;;;1.24;68.88
23229;BME280;11783;50.350;6.576;2023-03-01T09:53:54;96909.22;;;1.17;68.89
23229;BME280;11783;50.350;6.576;2023-03-01T09:59:21;96916.78;;;1.12;69.15
23229;BME280;11783;50.350;6.576;2023-03-01T10:02:11;96914.59;;;1.24;69.43
23229;BME280;11783;50.350;6.576;2023-03-01T10:04:46;96911.50;;;1.20;68.88
23229;BME280;11783;50.350;6.576;2023-03-01T10:07:36;96919.03;;;1.32;68.56
23229;BME280;11783;50.350;6.576;2023-03-01T10:10:07;96927.47;;;1.50;68.22
23229;BME280;11783;50.350;6.576;2023-03-01T10:12:37;96909.56;;;1.62;67.18
23229;BME280;11783;50.350;6.576;2023-03-01T10:15:43;96905.94;;;1.71;67.41
23229;BME280;11783;50.350;6.576;2023-03-01T10:18:17;96903.63;;;1.76;67.06
23229;BME280;11783;50.350;6.576;2023-03-01T10:20:56;96899.38;;;1.75;67.60
23229;BME280;11783;50.350;6.576;2023-03-01T10:23:24;96892.09;;;1.85;66.02
23229;BME280;11783;50.350;6.576;2023-03-01T10:28:52;96886.19;;;1.91;67.15
23229;BME280;11783;50.350;6.576;2023-03-01T10:31:23;96888.38;;;2.02;64.97
23229;BME280;11783;50.350;6.576;2023-03-01T10:33:53;96891.66;;;2.04;65.63
23229;BME280;11783;50.350;6.576;2023-03-01T10:36:21;96890.19;;;2.02;66.97
23229;BME280;11783;50.350;6.576;2023-03-01T10:38:53;96884.41;;;2.15;66.77
23229;BME280;11783;50.350;6.576;2023-03-01T10:41:23;96882.38;;;2.25;64.75
23229;BME280;11783;50.350;6.576;2023-03-01T10:43:51;96889.56;;;2.23;64.66
23229;BME280;11783;50.350;6.576;2023-03-01T10:46:28;96879.56;;;2.26;66.17
23229;BME280;11783;50.350;6.576;2023-03-01T10:51:45;96870.78;;;2.42;65.14
23229;BME280;11783;50.350;6.576;2023-03-01T10:54:29;96862.63;;;2.52;63.40
23229;BME280;11783;50.350;6.576;2023-03-01T10:56:57;96871.09;;;2.62;65.04
23229;BME280;11783;50.350;6.576;2023-03-01T11:02:13;96872.84;;;2.84;62.18
23229;BME280;11783;50.350;6.576;2023-03-01T11:04:39;96870.22;;;2.84;62.83
23229;BME280;11783;50.350;6.576;2023-03-01T11:07:07;96868.50;;;2.91;62.51
23229;BME280;11783;50.350;6.576;2023-03-01T11:09:33;96862.53;;;2.97;63.35
23229;BME280;11783;50.350;6.576;2023-03-01T11:12:11;96854.97;;;3.02;62.70
23229;BME280;11783;50.350;6.576;2023-03-01T11:14:46;96866.19;;;3.11;61.64
23229;BME280;11783;50.350;6.576;2023-03-01T11:17:17;96867.44;;;3.15;59.44
23229;BME280;11783;50.350;6.576;2023-03-01T11:22:30;96852.41;;;3.24;60.84
23229;BME280;11783;50.350;6.576;2023-03-01T11:24:56;96835.09;;;3.29;61.02
23229;BME280;11783;50.350;6.576;2023-03-01T11:27:30;96843.16;;;3.28;60.89
23229;BME280;11783;50.350;6.576;2023-03-01T11:32:28;96839.34;;;3.45;60.63
23229;BME280;11783;50.350;6.576;2023-03-01T11:35:19;96843.88;;;3.51;61.75
23229;BME280;11783;50.350;6.576;2023-03-01T11:40:26;96834.34;;;3.65;60.17
23229;BME280;11783;50.350;6.576;2023-03-01T11:45:24;96815.75;;;3.67;59.93
23229;BME280;11783;50.350;6.576;2023-03-01T11:48:06;96814.84;;;3.74;59.92
23229;BME280;11783;50.350;6.576;2023-03-01T11:50:41;96814.47;;;3.77;60.07
23229;BME280;11783;50.350;6.576;2023-03-01T11:59:03;96792.41;;;3.57;59.15
23229;BME280;11783;50.350;6.576;2023-03-01T12:29:47;96764.19;;;4.08;60.00
23229;BME280;11783;50.350;6.576;2023-03-01T12:34:50;96761.44;;;4.16;60.28
23229;BME280;11783;50.350;6.576;2023-03-01T12:37:23;96757.19;;;4.15;59.99
23229;BME280;11783;50.350;6.576;2023-03-01T12:46:06;96759.84;;;4.22;59.26
23229;BME280;11783;50.350;6.576;2023-03-01T12:48:47;96762.38;;;4.30;58.52
23229;BME280;11783;50.350;6.576;2023-03-01T12:51:22;96754.66;;;4.29;59.53
23229;BME280;11783;50.350;6.576;2023-03-01T12:53:52;96756.97;;;4.38;57.77
23229;BME280;11783;50.350;6.576;2023-03-01T12:56:25;96758.69;;;4.52;59.41
23229;BME280;11783;50.350;6.576;2023-03-01T13:15:34;96740.13;;;5.56;54.85
23229;BME280;11783;50.350;6.576;2023-03-01T13:18:01;96739.13;;;5.57;55.26
23229;BME280;11783;50.350;6.576;2023-03-01T13:26:05;96731.53;;;6.48;54.89
23229;BME280;11783;50.350;6.576;2023-03-01T13:31:05;96744.00;;;7.06;52.92
23229;BME280;11783;50.350;6.576;2023-03-01T13:36:00;96731.44;;;7.52;50.76
23229;BME280;11783;50.350;6.576;2023-03-01T13:38:48;96728.59;;;7.54;48.95
23229;BME280;11783;50.350;6.576;2023-03-01T13:46:50;96725.53;;;7.88;46.02
23229;BME280;11783;50.350;6.576;2023-03-01T13:49:20;96715.53;;;7.90;47.35
23229;BME280;11783;50.350;6.576;2023-03-01T13:51:47;96709.47;;;8.15;45.97
23229;BME280;11783;50.350;6.576;2023-03-01T13:54:15;96709.84;;;8.18;47.96
23229;BME280;11783;50.350;6.576;2023-03-01T13:56:41;96721.53;;;8.36;47.56
23229;BME280;11783;50.350;6.576;2023-03-01T13:59:14;96712.66;;;8.48;47.39
23229;BME280;11783;50.350;6.576;2023-03-01T14:01:40;96706.59;;;8.66;46.72
23229;BME280;11783;50.350;6.576;2023-03-01T14:04:28;96695.94;;;8.91;46.37
23229;BME280;11783;50.350;6.576;2023-03-01T14:07:17;96706.53;;;9.09;46.51
23229;BME280;11783;50.350;6.576;2023-03-01T14:09:45;96705.31;;;8.94;44.38
23229;BME280;11783;50.350;6.576;2023-03-01T14:12:36;96709.28;;;9.03;46.00
23229;BME280;11783;50.350;6.576;2023-03-01T14:18:04;96700.84;;;9.43;46.29
23229;BME280;11783;50.350;6.576;2023-03-01T14:20:39;96698.53;;;9.16;44.67
23229;BME280;11783;50.350;6.576;2023-03-01T14:23:12;96690.78;;;9.15;44.99
23229;BME280;11783;50.350;6.576;2023-03-01T14:25:38;96694.88;;;9.29;45.64
23229;BME280;11783;50.350;6.576;2023-03-01T14:28:37;96685.53;;;9.26;44.30
23229;BME280;11783;50.350;6.576;2023-03-01T14:31:31;96679.41;;;9.26;45.48
23229;BME280;11783;50.350;6.576;2023-03-01T14:33:58;96681.63;;;9.10;45.11
23229;BME280;11783;50.350;6.576;2023-03-01T14:36:29;96678.25;;;9.22;43.46
23229;BME280;11783;50.350;6.576;2023-03-01T14:38:55;96669.56;;;9.33;42.74
23229;BME280;11783;50.350;6.576;2023-03-01T14:41:25;96669.94;;;9.48;44.16
23229;BME280;11783;50.350;6.576;2023-03-01T14:43:55;96675.66;;;9.63;43.39
23229;BME280;11783;50.350;6.576;2023-03-01T14:46:43;96669.47;;;9.69;43.71
23229;BME280;11783;50.350;6.576;2023-03-01T14:49:16;96662.44;;;9.75;45.50
23229;BME280;11783;50.350;6.576;2023-03-01T14:51:52;96664.44;;;9.91;45.41
23229;BME280;11783;50.350;6.576;2023-03-01T14:54:36;96658.69;;;10.18;45.78
23229;BME280;11783;50.350;6.576;2023-03-01T14:57:04;96660.94;;;10.44;43.83
23229;BME280;11783;50.350;6.576;2023-03-01T14:59:29;96661.19;;;10.43;42.50
23229;BME280;11783;50.350;6.576;2023-03-01T15:01:57;96657.16;;;9.87;42.75
23229;BME280;11783;50.350;6.576;2023-03-01T15:04:24;96655.97;;;9.83;44.91
23229;BME280;11783;50.350;6.576;2023-03-01T15:06:51;96647.13;;;10.00;45.12
23229;BME280;11783;50.350;6.576;2023-03-01T15:09:18;96652.94;;;10.21;43.41